createdAt,value
2016-12-15T00:00:49.511Z,0
2016-12-15T00:01:58.813Z,0
2016-12-15T00:03:08.436Z,0
2016-12-15T00:04:17.736Z,0
2016-12-15T00:05:27.038Z,0
2016-12-15T00:06:36.056Z,0
2016-12-15T00:07:45.371Z,0
2016-12-15T00:08:54.355Z,0
2016-12-15T00:10:03.654Z,0
2016-12-15T00:11:12.637Z,0
2016-12-15T00:12:21.924Z,0
2016-12-15T00:13:30.922Z,0
2016-12-15T00:14:39.918Z,0
2016-12-15T00:15:49.220Z,0
2016-12-15T00:16:58.218Z,0
2016-12-15T00:18:07.518Z,0
2016-12-15T00:19:17.114Z,0
2016-12-15T00:20:26.091Z,0
2016-12-15T00:21:35.700Z,0
2016-12-15T00:22:44.380Z,0
2016-12-15T00:23:53.383Z,0
2016-12-15T00:25:02.672Z,0
2016-12-15T00:26:11.354Z,0
2016-12-15T00:27:20.040Z,0
2016-12-15T00:28:28.727Z,0
2016-12-15T00:29:37.416Z,0
2016-12-15T00:30:46.398Z,0
2016-12-15T00:31:55.385Z,0
2016-12-15T00:33:04.121Z,0
2016-12-15T00:34:13.439Z,0
2016-12-15T00:35:22.449Z,0
2016-12-15T00:36:31.444Z,0
2016-12-15T00:37:40.133Z,0
2016-12-15T00:38:48.825Z,0
2016-12-15T00:39:57.807Z,0
2016-12-15T00:41:06.498Z,0
2016-12-15T00:42:16.114Z,0
2016-12-15T00:43:25.104Z,0
2016-12-15T00:44:33.784Z,0
2016-12-15T00:45:42.767Z,0
2016-12-15T00:46:51.766Z,0
2016-12-15T00:48:00.457Z,0
2016-12-15T00:49:09.749Z,0
2016-12-15T00:50:19.040Z,0
2016-12-15T00:51:28.023Z,0
2016-12-15T00:52:37.311Z,0
2016-12-15T00:53:46.303Z,0
2016-12-15T00:54:55.608Z,0
2016-12-15T00:56:04.584Z,0
2016-12-15T00:57:13.878Z,0
2016-12-15T00:58:22.548Z,0
2016-12-15T00:59:32.144Z,0
2016-12-15T01:00:41.128Z,0
2016-12-15T01:01:49.800Z,0
2016-12-15T01:02:58.809Z,0
2016-12-15T01:04:08.719Z,0
2016-12-15T01:05:17.695Z,0
2016-12-15T01:06:27.020Z,0
2016-12-15T01:07:35.692Z,0
2016-12-15T01:08:44.365Z,0
2016-12-15T01:09:53.059Z,0
2016-12-15T01:11:02.976Z,0
2016-12-15T01:12:11.969Z,0
2016-12-15T01:13:21.580Z,0
2016-12-15T01:14:30.885Z,0
2016-12-15T01:15:39.572Z,0
2016-12-15T01:16:48.271Z,0
2016-12-15T01:17:57.561Z,0
2016-12-15T01:19:06.874Z,0
2016-12-15T01:20:16.179Z,0
2016-12-15T01:21:25.182Z,0
2016-12-15T01:22:34.172Z,0
2016-12-15T01:23:43.461Z,0
2016-12-15T01:24:52.148Z,0
2016-12-15T01:26:01.495Z,0
2016-12-15T01:27:10.181Z,0
2016-12-15T01:28:18.876Z,0
2016-12-15T01:29:28.174Z,0
2016-12-15T01:30:37.165Z,0
2016-12-15T01:31:46.150Z,0
2016-12-15T01:32:55.144Z,0
2016-12-15T01:34:04.131Z,0
2016-12-15T01:35:13.122Z,0
2016-12-15T01:36:22.104Z,0
2016-12-15T01:37:31.104Z,0
2016-12-15T01:38:40.100Z,0
2016-12-15T01:39:48.793Z,0
2016-12-15T01:40:58.400Z,0
2016-12-15T01:42:07.694Z,0
2016-12-15T01:43:16.367Z,0
2016-12-15T01:44:25.052Z,0
2016-12-15T01:45:34.038Z,0
2016-12-15T01:46:42.724Z,0
2016-12-15T01:47:51.712Z,0
2016-12-15T01:49:00.692Z,0
2016-12-15T01:50:09.682Z,0
2016-12-15T01:51:18.978Z,0
2016-12-15T01:52:27.665Z,0
2016-12-15T01:53:36.652Z,0
2016-12-15T01:54:45.633Z,0
2016-12-15T01:55:54.915Z,0
2016-12-15T01:57:04.252Z,0
2016-12-15T01:58:13.852Z,0
2016-12-15T01:59:23.166Z,0
2016-12-15T02:00:32.774Z,0
2016-12-15T02:01:41.772Z,0
2016-12-15T02:02:50.452Z,0
2016-12-15T02:03:59.132Z,0
2016-12-15T02:05:08.124Z,0
2016-12-15T02:06:17.104Z,0
2016-12-15T02:07:26.110Z,0
2016-12-15T02:08:35.095Z,0
2016-12-15T02:09:44.074Z,0
2016-12-15T02:10:53.684Z,0
2016-12-15T02:12:02.675Z,0
2016-12-15T02:13:11.668Z,0
2016-12-15T02:14:20.358Z,0
2016-12-15T02:15:29.374Z,0
2016-12-15T02:16:38.058Z,0
2016-12-15T02:17:47.074Z,0
2016-12-15T02:18:56.668Z,0
2016-12-15T02:20:05.364Z,0
2016-12-15T02:21:14.351Z,0
2016-12-15T02:22:23.332Z,0
2016-12-15T02:23:32.333Z,0
2016-12-15T02:24:41.329Z,0
2016-12-15T02:25:50.314Z,0
2016-12-15T02:26:59.313Z,0
2016-12-15T02:28:08.610Z,0
2016-12-15T02:29:17.601Z,0
2016-12-15T02:30:26.585Z,0
2016-12-15T02:31:35.879Z,0
2016-12-15T02:32:44.878Z,0
2016-12-15T02:33:53.561Z,0
2016-12-15T02:35:02.548Z,0
2016-12-15T02:36:11.541Z,0
2016-12-15T02:37:21.145Z,0
2016-12-15T02:38:30.148Z,0
2016-12-15T02:39:39.141Z,0
2016-12-15T02:40:48.127Z,0
2016-12-15T02:41:57.126Z,0
2016-12-15T02:43:06.099Z,0
2016-12-15T02:44:15.402Z,0
2016-12-15T02:45:24.094Z,0
2016-12-15T02:46:32.776Z,0
2016-12-15T02:47:42.079Z,0
2016-12-15T02:48:50.764Z,0
2016-12-15T02:49:59.747Z,0
2016-12-15T02:51:08.745Z,0
2016-12-15T02:52:17.427Z,0
2016-12-15T02:53:26.732Z,0
2016-12-15T02:54:35.407Z,0
2016-12-15T02:55:44.388Z,0
2016-12-15T02:56:54.009Z,0
2016-12-15T02:58:02.678Z,0
2016-12-15T02:59:11.359Z,0
2016-12-15T03:00:20.356Z,0
2016-12-15T03:01:29.348Z,0
2016-12-15T03:02:38.326Z,0
2016-12-15T03:03:47.313Z,0
2016-12-15T03:04:55.990Z,0
2016-12-15T03:06:05.587Z,0
2016-12-15T03:07:14.585Z,0
2016-12-15T03:08:23.572Z,0
2016-12-15T03:09:32.875Z,0
2016-12-15T03:10:41.871Z,0
2016-12-15T03:11:50.887Z,0
2016-12-15T03:12:59.600Z,0
2016-12-15T03:14:08.281Z,0
2016-12-15T03:15:17.588Z,0
2016-12-15T03:16:26.583Z,0
2016-12-15T03:17:35.867Z,0
2016-12-15T03:18:44.539Z,0
2016-12-15T03:19:53.531Z,0
2016-12-15T03:21:02.549Z,0
2016-12-15T03:22:11.530Z,0
2016-12-15T03:23:20.834Z,0
2016-12-15T03:24:29.816Z,0
2016-12-15T03:25:39.426Z,0
2016-12-15T03:26:48.410Z,0
2016-12-15T03:27:57.094Z,0
2016-12-15T03:29:06.394Z,0
2016-12-15T03:30:15.387Z,0
2016-12-15T03:31:24.371Z,0
2016-12-15T03:32:33.676Z,0
2016-12-15T03:33:42.363Z,0
2016-12-15T03:34:51.360Z,0
2016-12-15T03:36:00.348Z,0
2016-12-15T03:37:09.338Z,0
2016-12-15T03:38:18.336Z,0
2016-12-15T03:39:27.634Z,0
2016-12-15T03:40:36.984Z,0
2016-12-15T03:41:45.676Z,0
2016-12-15T03:42:54.364Z,0
2016-12-15T03:44:03.966Z,0
2016-12-15T03:45:12.654Z,0
2016-12-15T03:46:21.337Z,0
2016-12-15T03:47:30.023Z,0
2016-12-15T03:48:39.005Z,0
2016-12-15T03:49:48.310Z,0
2016-12-15T03:50:57.293Z,0
2016-12-15T03:52:06.285Z,0
2016-12-15T03:53:14.973Z,0
2016-12-15T03:54:23.961Z,0
2016-12-15T03:55:32.944Z,0
2016-12-15T03:56:41.934Z,0
2016-12-15T03:57:51.226Z,0
2016-12-15T03:58:59.895Z,0
2016-12-15T04:00:08.578Z,0
2016-12-15T04:01:17.565Z,0
2016-12-15T04:02:26.275Z,0
2016-12-15T04:03:34.956Z,0
2016-12-15T04:04:44.258Z,0
2016-12-15T04:05:53.274Z,0
2016-12-15T04:07:01.961Z,0
2016-12-15T04:08:10.956Z,0
2016-12-15T04:09:19.646Z,0
2016-12-15T04:10:28.340Z,0
2016-12-15T04:11:37.325Z,0
2016-12-15T04:12:46.318Z,0
2016-12-15T04:13:55.307Z,0
2016-12-15T04:15:04.612Z,0
2016-12-15T04:16:13.593Z,0
2016-12-15T04:17:22.588Z,0
2016-12-15T04:18:31.891Z,0
2016-12-15T04:19:41.179Z,0
2016-12-15T04:20:50.169Z,0
2016-12-15T04:21:59.157Z,0
2016-12-15T04:23:07.843Z,0
2016-12-15T04:24:17.126Z,0
2016-12-15T04:25:26.155Z,0
2016-12-15T04:26:35.140Z,0
2016-12-15T04:27:44.422Z,0
2016-12-15T04:28:53.098Z,0
2016-12-15T04:30:02.396Z,0
2016-12-15T04:31:11.685Z,0
2016-12-15T04:32:20.685Z,0
2016-12-15T04:33:29.367Z,0
2016-12-15T04:34:38.049Z,0
2016-12-15T04:35:46.723Z,0
2016-12-15T04:36:55.404Z,0
2016-12-15T04:38:04.088Z,0
2016-12-15T04:39:13.069Z,0
2016-12-15T04:40:22.364Z,0
2016-12-15T04:41:31.347Z,0
2016-12-15T04:42:40.340Z,0
2016-12-15T04:43:49.326Z,0
2016-12-15T04:44:58.018Z,0
2016-12-15T04:46:06.996Z,0
2016-12-15T04:47:16.285Z,0
2016-12-15T04:48:25.275Z,0
2016-12-15T04:49:34.263Z,0
2016-12-15T04:50:43.556Z,0
2016-12-15T04:51:52.232Z,0
2016-12-15T04:53:01.835Z,0
2016-12-15T04:54:10.817Z,0
2016-12-15T04:55:20.136Z,0
2016-12-15T04:56:29.122Z,0
2016-12-15T04:57:38.410Z,0
2016-12-15T04:58:47.704Z,0
2016-12-15T04:59:56.382Z,0
2016-12-15T05:01:05.377Z,0
2016-12-15T05:02:14.080Z,0
2016-12-15T05:03:23.386Z,0
2016-12-15T05:04:32.065Z,0
2016-12-15T05:05:41.386Z,0
2016-12-15T05:06:50.665Z,0
2016-12-15T05:07:59.652Z,0
2016-12-15T05:09:08.641Z,0
2016-12-15T05:10:17.934Z,0
2016-12-15T05:11:27.526Z,0
2016-12-15T05:12:36.831Z,0
2016-12-15T05:13:45.818Z,0
2016-12-15T05:14:54.813Z,0
2016-12-15T05:16:03.494Z,0
2016-12-15T05:17:12.791Z,0
2016-12-15T05:18:22.405Z,0
2016-12-15T05:19:31.390Z,0
2016-12-15T05:20:40.390Z,0
2016-12-15T05:21:49.066Z,0
2016-12-15T05:22:58.374Z,0
2016-12-15T05:24:07.059Z,0
2016-12-15T05:25:15.732Z,0
2016-12-15T05:26:24.732Z,0
2016-12-15T05:27:33.419Z,0
2016-12-15T05:28:43.623Z,0
2016-12-15T05:29:52.296Z,0
2016-12-15T05:31:01.901Z,0
2016-12-15T05:32:10.945Z,0
2016-12-15T05:33:19.949Z,0
2016-12-15T05:34:28.632Z,0
2016-12-15T05:35:37.311Z,0
2016-12-15T05:36:46.610Z,0
2016-12-15T05:37:55.911Z,0
2016-12-15T05:39:04.907Z,0
2016-12-15T05:40:13.589Z,0
2016-12-15T05:41:22.577Z,0
2016-12-15T05:42:31.260Z,0
2016-12-15T05:43:39.956Z,0
2016-12-15T05:44:48.649Z,0
2016-12-15T05:45:57.336Z,0
2016-12-15T05:47:06.632Z,0
2016-12-15T05:48:15.308Z,0
2016-12-15T05:49:24.605Z,0
2016-12-15T05:50:33.286Z,0
2016-12-15T05:51:42.584Z,0
2016-12-15T05:52:51.270Z,0
2016-12-15T05:56:32.633Z,0
2016-12-15T05:57:41.630Z,0
2016-12-15T06:01:22.991Z,0
2016-12-15T06:05:04.337Z,0
2016-12-15T06:08:45.694Z,0
2016-12-15T06:12:27.049Z,0
2016-12-15T06:18:44.966Z,4
2016-12-15T06:22:26.307Z,4
2016-12-15T06:23:34.995Z,4
2016-12-15T06:24:43.976Z,4
2016-12-15T06:25:52.966Z,4
2016-12-15T06:27:01.961Z,4
2016-12-15T06:28:10.968Z,4
2016-12-15T06:29:20.270Z,4
2016-12-15T06:30:28.946Z,4
2016-12-15T06:31:37.640Z,4
2016-12-15T06:32:46.937Z,4
2016-12-15T06:33:55.928Z,4
2016-12-15T06:35:04.940Z,4
2016-12-15T06:36:13.625Z,4
2016-12-15T06:37:22.318Z,4
2016-12-15T06:38:31.926Z,4
2016-12-15T06:39:40.917Z,4
2016-12-15T06:40:49.908Z,4
2016-12-15T06:41:58.581Z,4
2016-12-15T06:43:07.871Z,4
2016-12-15T06:44:16.870Z,4
2016-12-15T06:45:25.863Z,4
2016-12-15T06:46:34.540Z,4
2016-12-15T06:47:43.220Z,4
2016-12-15T06:48:52.228Z,4
2016-12-15T06:50:01.228Z,4
2016-12-15T06:51:10.532Z,4
2016-12-15T06:52:19.526Z,4
2016-12-15T06:53:28.513Z,4
2016-12-15T06:54:37.520Z,4
2016-12-15T06:55:46.205Z,4
2016-12-15T06:56:55.195Z,4
2016-12-15T06:58:05.170Z,4
2016-12-15T06:59:14.476Z,4
2016-12-15T07:00:23.495Z,4
2016-12-15T07:01:32.192Z,4
2016-12-15T07:02:41.173Z,4
2016-12-15T07:04:22.092Z,0
2016-12-15T07:05:31.092Z,0
2016-12-15T07:06:40.102Z,4
2016-12-15T07:07:49.391Z,4
2016-12-15T07:08:58.090Z,4
2016-12-15T07:10:07.688Z,4
2016-12-15T07:11:17.011Z,4
2016-12-15T07:12:25.726Z,8
2016-12-15T07:13:34.493Z,4
2016-12-15T07:14:43.183Z,4
2016-12-15T07:15:52.527Z,4
2016-12-15T07:17:01.259Z,8
2016-12-15T07:18:09.946Z,8
2016-12-15T07:19:18.956Z,8
2016-12-15T07:20:27.642Z,8
2016-12-15T07:21:36.660Z,8
2016-12-15T07:22:45.677Z,8
2016-12-15T07:23:54.993Z,8
2016-12-15T07:25:04.022Z,8
2016-12-15T07:26:13.336Z,8
2016-12-15T07:27:22.185Z,12
2016-12-15T07:28:31.177Z,8
2016-12-15T07:29:39.856Z,8
2016-12-15T07:30:48.552Z,8
2016-12-15T07:31:57.573Z,12
2016-12-15T07:33:06.408Z,12
2016-12-15T07:34:15.403Z,16
2016-12-15T07:35:24.709Z,12
2016-12-15T07:36:34.009Z,16
2016-12-15T07:37:43.312Z,16
2016-12-15T07:38:52.309Z,16
2016-12-15T07:40:01.597Z,24
2016-12-15T07:41:10.287Z,24
2016-12-15T07:42:18.979Z,24
2016-12-15T07:43:27.978Z,24
2016-12-15T07:44:36.974Z,28
2016-12-15T07:45:45.665Z,32
2016-12-15T07:46:55.001Z,36
2016-12-15T07:48:04.009Z,32
2016-12-15T07:49:13.018Z,32
2016-12-15T07:50:22.356Z,36
2016-12-15T07:51:31.980Z,40
2016-12-15T07:52:40.675Z,40
2016-12-15T07:53:50.045Z,44
2016-12-15T07:54:59.081Z,48
2016-12-15T07:56:08.106Z,48
2016-12-15T07:57:17.718Z,48
2016-12-15T07:58:26.714Z,48
2016-12-15T07:59:36.059Z,52
2016-12-15T08:00:44.768Z,48
2016-12-15T08:01:53.844Z,52
2016-12-15T08:03:02.598Z,52
2016-12-15T08:04:11.603Z,56
2016-12-15T08:05:20.298Z,64
2016-12-15T08:06:29.627Z,64
2016-12-15T08:07:38.947Z,68
2016-12-15T08:08:48.322Z,72
2016-12-15T08:09:57.639Z,80
2016-12-15T08:11:06.945Z,80
2016-12-15T08:12:15.973Z,84
2016-12-15T08:13:24.677Z,84
2016-12-15T08:14:33.677Z,88
2016-12-15T08:15:42.745Z,84
2016-12-15T08:16:51.766Z,80
2016-12-15T08:18:00.786Z,72
2016-12-15T08:19:09.800Z,72
2016-12-15T08:20:19.120Z,72
2016-12-15T08:21:28.117Z,72
2016-12-15T08:22:37.146Z,76
2016-12-15T08:23:46.175Z,76
2016-12-15T08:24:55.177Z,76
2016-12-15T08:26:04.285Z,76
2016-12-15T08:27:13.312Z,84
2016-12-15T08:28:22.619Z,100
2016-12-15T08:29:31.339Z,108
2016-12-15T08:30:40.077Z,116
2016-12-15T08:31:49.056Z,124
2016-12-15T08:32:58.058Z,124
2016-12-15T08:34:07.687Z,132
2016-12-15T08:35:16.391Z,128
2016-12-15T08:36:25.753Z,132
2016-12-15T08:37:34.752Z,128
2016-12-15T08:38:43.772Z,132
2016-12-15T08:39:53.079Z,140
2016-12-15T08:41:02.102Z,144
2016-12-15T08:42:11.438Z,140
2016-12-15T08:43:20.451Z,148
2016-12-15T08:44:29.768Z,156
2016-12-15T08:45:38.779Z,168
2016-12-15T08:46:48.084Z,164
2016-12-15T08:47:57.430Z,168
2016-12-15T08:49:06.157Z,172
2016-12-15T08:50:14.879Z,164
2016-12-15T08:51:23.893Z,172
2016-12-15T08:52:33.634Z,172
2016-12-15T08:53:42.807Z,172
2016-12-15T08:54:51.491Z,176
2016-12-15T08:56:00.524Z,176
2016-12-15T08:57:09.537Z,180
2016-12-15T08:58:18.852Z,192
2016-12-15T08:59:27.855Z,188
2016-12-15T09:00:36.884Z,188
2016-12-15T09:01:45.917Z,188
2016-12-15T09:02:55.221Z,200
2016-12-15T09:04:04.210Z,188
2016-12-15T09:05:13.511Z,184
2016-12-15T09:06:22.198Z,184
2016-12-15T09:07:30.892Z,188
2016-12-15T09:08:40.206Z,200
2016-12-15T09:09:49.244Z,196
2016-12-15T09:10:58.111Z,204
2016-12-15T09:12:07.108Z,204
2016-12-15T09:13:16.154Z,208
2016-12-15T09:14:25.159Z,204
2016-12-15T09:15:34.213Z,224
2016-12-15T09:16:43.222Z,228
2016-12-15T09:17:52.247Z,228
2016-12-15T09:19:01.242Z,232
2016-12-15T09:20:09.953Z,224
2016-12-15T09:21:18.641Z,244
2016-12-15T09:22:27.938Z,216
2016-12-15T09:23:36.929Z,204
2016-12-15T09:24:46.242Z,220
2016-12-15T09:25:55.851Z,228
2016-12-15T09:27:04.851Z,236
2016-12-15T09:28:13.675Z,228
2016-12-15T09:29:22.972Z,240
2016-12-15T09:30:31.959Z,244
2016-12-15T09:31:41.289Z,256
2016-12-15T09:32:50.583Z,256
2016-12-15T09:33:59.566Z,248
2016-12-15T09:35:09.205Z,268
2016-12-15T09:36:18.227Z,292
2016-12-15T09:37:27.256Z,284
2016-12-15T09:38:36.343Z,280
2016-12-15T09:39:45.347Z,272
2016-12-15T09:40:54.045Z,268
2016-12-15T09:42:03.356Z,280
2016-12-15T09:43:12.054Z,276
2016-12-15T09:44:21.345Z,284
2016-12-15T09:45:30.206Z,276
2016-12-15T09:46:39.207Z,292
2016-12-15T09:47:48.211Z,288
2016-12-15T09:48:57.217Z,284
2016-12-15T09:50:06.213Z,284
2016-12-15T09:51:15.371Z,288
2016-12-15T09:52:24.057Z,288
2016-12-15T09:53:32.748Z,284
2016-12-15T09:54:41.751Z,284
2016-12-15T09:55:50.765Z,300
2016-12-15T09:56:59.796Z,296
2016-12-15T09:58:08.803Z,324
2016-12-15T09:59:17.808Z,324
2016-12-15T10:00:27.436Z,332
2016-12-15T10:01:36.737Z,344
2016-12-15T10:02:45.429Z,348
2016-12-15T10:03:54.427Z,344
2016-12-15T10:05:03.115Z,356
2016-12-15T10:06:12.117Z,356
2016-12-15T10:07:21.430Z,380
2016-12-15T10:08:30.108Z,380
2016-12-15T10:09:38.804Z,384
2016-12-15T10:10:47.821Z,372
2016-12-15T10:11:56.859Z,408
2016-12-15T10:13:05.841Z,396
2016-12-15T10:14:14.865Z,404
2016-12-15T10:15:24.164Z,404
2016-12-15T10:16:32.872Z,408
2016-12-15T10:17:42.477Z,368
2016-12-15T10:18:51.184Z,372
2016-12-15T10:20:00.840Z,368
2016-12-15T10:21:09.845Z,380
2016-12-15T10:22:18.852Z,376
2016-12-15T10:23:27.556Z,372
2016-12-15T10:24:37.795Z,368
2016-12-15T10:25:46.876Z,372
2016-12-15T10:26:56.205Z,372
2016-12-15T10:28:05.246Z,364
2016-12-15T10:29:14.551Z,348
2016-12-15T10:30:23.851Z,384
2016-12-15T10:31:32.866Z,356
2016-12-15T10:32:42.169Z,376
2016-12-15T10:33:51.471Z,372
2016-12-15T10:35:00.469Z,364
2016-12-15T10:36:09.513Z,364
2016-12-15T10:37:19.428Z,392
2016-12-15T10:38:28.130Z,416
2016-12-15T10:39:37.137Z,388
2016-12-15T10:40:46.168Z,380
2016-12-15T10:41:55.806Z,388
2016-12-15T10:43:05.280Z,392
2016-12-15T10:44:14.307Z,412
2016-12-15T10:45:23.607Z,396
2016-12-15T10:46:33.244Z,412
2016-12-15T10:47:42.534Z,444
2016-12-15T10:48:52.063Z,416
2016-12-15T10:50:01.382Z,404
2016-12-15T10:51:10.381Z,436
2016-12-15T10:52:19.380Z,416
2016-12-15T10:53:28.091Z,444
2016-12-15T10:54:37.250Z,424
2016-12-15T10:55:46.541Z,428
2016-12-15T10:56:55.228Z,420
2016-12-15T10:58:03.930Z,428
2016-12-15T10:59:13.532Z,440
2016-12-15T11:00:22.855Z,416
2016-12-15T11:01:32.499Z,428
2016-12-15T11:02:41.211Z,424
2016-12-15T11:03:50.523Z,408
2016-12-15T11:04:59.599Z,404
2016-12-15T11:06:09.208Z,404
2016-12-15T11:07:18.205Z,440
2016-12-15T11:08:27.219Z,420
2016-12-15T11:09:36.238Z,432
2016-12-15T11:10:45.540Z,424
2016-12-15T11:11:54.241Z,464
2016-12-15T11:13:03.567Z,452
2016-12-15T11:14:12.274Z,448
2016-12-15T11:15:21.590Z,480
2016-12-15T11:16:30.286Z,476
2016-12-15T11:17:39.274Z,472
2016-12-15T11:18:48.301Z,484
2016-12-15T11:19:56.979Z,492
2016-12-15T11:21:05.997Z,520
2016-12-15T11:22:15.064Z,520
2016-12-15T11:23:23.745Z,524
2016-12-15T11:24:33.048Z,520
2016-12-15T11:25:41.791Z,492
2016-12-15T11:26:50.476Z,484
2016-12-15T11:27:59.782Z,484
2016-12-15T11:29:08.802Z,468
2016-12-15T11:30:17.819Z,440
2016-12-15T11:31:26.851Z,484
2016-12-15T11:32:36.153Z,492
2016-12-15T11:33:44.849Z,492
2016-12-15T11:34:54.503Z,548
2016-12-15T11:36:03.814Z,464
2016-12-15T11:37:13.136Z,460
2016-12-15T11:38:22.127Z,456
2016-12-15T11:39:31.449Z,452
2016-12-15T11:40:41.435Z,440
2016-12-15T11:41:51.053Z,452
2016-12-15T11:43:00.346Z,460
2016-12-15T11:44:09.346Z,456
2016-12-15T11:45:18.340Z,452
2016-12-15T11:46:27.188Z,472
2016-12-15T11:47:35.888Z,492
2016-12-15T11:48:44.584Z,496
2016-12-15T11:49:53.591Z,520
2016-12-15T11:51:02.573Z,532
2016-12-15T11:52:11.614Z,548
2016-12-15T11:53:20.915Z,536
2016-12-15T11:54:29.934Z,612
2016-12-15T11:55:38.628Z,536
2016-12-15T11:56:47.333Z,548
2016-12-15T11:57:56.026Z,608
2016-12-15T11:59:05.325Z,592
2016-12-15T12:00:14.306Z,608
2016-12-15T12:01:23.014Z,636
2016-12-15T12:02:32.018Z,604
2016-12-15T12:03:41.032Z,560
2016-12-15T12:04:49.727Z,612
2016-12-15T12:05:58.423Z,580
2016-12-15T12:07:07.732Z,608
2016-12-15T12:08:16.762Z,576
2016-12-15T12:09:26.381Z,600
2016-12-15T12:10:35.371Z,636
2016-12-15T12:11:44.072Z,584
2016-12-15T12:12:53.070Z,588
2016-12-15T12:14:01.771Z,576
2016-12-15T12:15:11.125Z,612
2016-12-15T12:16:20.131Z,564
2016-12-15T12:17:29.131Z,536
2016-12-15T12:18:38.146Z,544
2016-12-15T12:19:47.458Z,572
2016-12-15T12:20:56.798Z,564
2016-12-15T12:22:06.429Z,552
2016-12-15T12:23:15.732Z,512
2016-12-15T12:24:24.725Z,464
2016-12-15T12:25:33.403Z,504
2016-12-15T12:26:42.860Z,520
2016-12-15T12:27:51.563Z,468
2016-12-15T12:29:00.266Z,452
2016-12-15T12:30:09.279Z,472
2016-12-15T12:31:18.260Z,432
2016-12-15T12:32:27.280Z,420
2016-12-15T12:33:36.972Z,440
2016-12-15T12:34:45.958Z,428
2016-12-15T12:35:54.967Z,420
2016-12-15T12:37:03.969Z,396
2016-12-15T12:38:12.706Z,412
2016-12-15T12:39:21.713Z,404
2016-12-15T12:40:30.724Z,412
2016-12-15T12:41:40.055Z,448
2016-12-15T12:42:49.049Z,432
2016-12-15T12:43:58.832Z,416
2016-12-15T12:45:07.523Z,468
2016-12-15T12:46:16.542Z,468
2016-12-15T12:47:25.242Z,484
2016-12-15T12:48:34.544Z,460
2016-12-15T12:49:43.583Z,460
2016-12-15T12:50:52.267Z,464
2016-12-15T12:52:01.263Z,448
2016-12-15T12:53:10.242Z,468
2016-12-15T12:54:18.920Z,480
2016-12-15T12:55:27.625Z,500
2016-12-15T12:56:36.606Z,480
2016-12-15T12:57:45.281Z,504
2016-12-15T12:58:54.298Z,464
2016-12-15T13:00:03.593Z,468
2016-12-15T13:01:12.745Z,512
2016-12-15T13:02:21.744Z,424
2016-12-15T13:03:30.762Z,408
2016-12-15T13:04:39.491Z,372
2016-12-15T13:05:48.551Z,364
2016-12-15T13:06:57.940Z,360
2016-12-15T13:08:06.955Z,392
2016-12-15T13:09:15.953Z,396
2016-12-15T13:10:25.563Z,372
2016-12-15T13:11:34.559Z,400
2016-12-15T13:12:43.620Z,408
2016-12-15T13:13:52.930Z,428
2016-12-15T13:15:01.611Z,400
2016-12-15T13:16:10.308Z,412
2016-12-15T13:17:19.309Z,428
2016-12-15T13:18:28.303Z,424
2016-12-15T13:19:36.987Z,428
2016-12-15T13:20:45.974Z,408
2016-12-15T13:21:54.971Z,380
2016-12-15T13:23:03.678Z,404
2016-12-15T13:24:13.350Z,400
2016-12-15T13:25:22.367Z,412
2016-12-15T13:26:32.003Z,408
2016-12-15T13:27:41.039Z,384
2016-12-15T13:28:49.763Z,388
2016-12-15T13:29:58.775Z,344
2016-12-15T13:31:07.797Z,320
2016-12-15T13:32:16.803Z,288
2016-12-15T13:33:26.109Z,276
2016-12-15T13:34:35.146Z,264
2016-12-15T13:35:43.987Z,232
2016-12-15T13:36:53.322Z,244
2016-12-15T13:38:02.349Z,256
2016-12-15T13:39:11.365Z,260
2016-12-15T13:40:20.391Z,264
2016-12-15T13:41:29.388Z,244
2016-12-15T13:42:38.091Z,236
2016-12-15T13:43:46.841Z,248
2016-12-15T13:44:56.151Z,248
2016-12-15T13:46:05.468Z,240
2016-12-15T13:47:14.179Z,220
2016-12-15T13:48:22.879Z,216
2016-12-15T13:49:31.572Z,204
2016-12-15T13:50:41.162Z,204
2016-12-15T13:51:50.147Z,192
2016-12-15T13:52:58.840Z,188
2016-12-15T13:54:07.551Z,180
2016-12-15T13:55:16.575Z,176
2016-12-15T13:56:25.272Z,180
2016-12-15T13:57:34.320Z,184
2016-12-15T13:58:43.012Z,164
2016-12-15T13:59:52.043Z,160
2016-12-15T14:01:01.102Z,160
2016-12-15T14:02:10.403Z,168
2016-12-15T14:03:19.390Z,176
2016-12-15T14:04:28.686Z,168
2016-12-15T14:05:37.685Z,164
2016-12-15T14:06:46.677Z,160
2016-12-15T14:07:55.361Z,156
2016-12-15T14:09:04.067Z,156
2016-12-15T14:12:45.895Z,156
2016-12-15T14:13:54.890Z,152
2016-12-15T14:15:03.904Z,144
2016-12-15T14:16:12.595Z,144
2016-12-15T14:17:21.894Z,140
2016-12-15T14:18:30.723Z,132
2016-12-15T14:19:39.411Z,120
2016-12-15T14:23:20.792Z,128
2016-12-15T14:24:30.425Z,116
2016-12-15T14:25:39.427Z,112
2016-12-15T14:26:48.458Z,108
2016-12-15T14:27:57.148Z,104
2016-12-15T14:29:06.446Z,112
2016-12-15T14:30:15.157Z,104
2016-12-15T14:31:24.170Z,100
2016-12-15T14:32:33.163Z,100
2016-12-15T14:36:14.227Z,100
2016-12-15T14:39:55.373Z,88
2016-12-15T14:41:04.373Z,88
2016-12-15T14:42:13.667Z,80
2016-12-15T14:43:22.368Z,84
2016-12-15T14:47:03.729Z,72
2016-12-15T14:48:13.690Z,68
2016-12-15T14:49:22.695Z,68
2016-12-15T14:50:31.720Z,72
2016-12-15T14:51:40.723Z,60
2016-12-15T14:52:49.434Z,56
2016-12-15T14:53:58.744Z,52
2016-12-15T14:55:07.737Z,48
2016-12-15T14:56:16.425Z,48
2016-12-15T14:57:25.134Z,40
2016-12-15T14:58:34.306Z,40
2016-12-15T14:59:43.345Z,44
2016-12-15T15:00:52.377Z,40
2016-12-15T15:02:01.373Z,40
2016-12-15T15:03:10.390Z,36
2016-12-15T15:04:19.543Z,36
2016-12-15T15:05:28.546Z,28
2016-12-15T15:06:37.258Z,32
2016-12-15T15:07:46.566Z,24
2016-12-15T15:08:55.271Z,28
2016-12-15T15:10:04.585Z,28
2016-12-15T15:11:13.587Z,24
2016-12-15T15:12:22.323Z,24
2016-12-15T15:13:31.307Z,20
2016-12-15T15:14:40.032Z,16
2016-12-15T15:15:49.096Z,20
2016-12-15T15:16:58.114Z,16
2016-12-15T15:18:06.827Z,20
2016-12-15T15:19:15.836Z,12
2016-12-15T15:20:24.522Z,16
2016-12-15T15:21:33.655Z,12
2016-12-15T15:22:42.674Z,12
2016-12-15T15:23:51.665Z,12
2016-12-15T15:25:00.661Z,12
2016-12-15T15:26:09.977Z,8
2016-12-15T15:27:19.591Z,8
2016-12-15T15:28:28.584Z,8
2016-12-15T15:29:37.910Z,8
2016-12-15T15:30:47.289Z,8
2016-12-15T15:31:56.289Z,8
2016-12-15T15:33:05.453Z,8
2016-12-15T15:34:14.453Z,8
2016-12-15T15:35:23.456Z,4
2016-12-15T15:36:32.158Z,4
2016-12-15T15:37:41.176Z,4
2016-12-15T15:38:50.331Z,4
2016-12-15T15:39:59.339Z,4
2016-12-15T15:41:08.970Z,4
2016-12-15T15:42:17.666Z,4
2016-12-15T15:43:26.674Z,0
2016-12-15T15:44:35.365Z,0
2016-12-15T15:45:44.042Z,4
2016-12-15T15:46:52.730Z,0
2016-12-15T15:48:01.747Z,0
2016-12-15T15:49:10.763Z,0
2016-12-15T15:50:19.926Z,0
2016-12-15T15:51:28.932Z,0
2016-12-15T15:52:37.931Z,0
2016-12-15T15:53:46.938Z,0
2016-12-15T15:54:56.263Z,0
2016-12-15T15:56:05.303Z,0
2016-12-15T15:57:14.001Z,0
2016-12-15T15:58:23.005Z,0
2016-12-15T15:59:32.311Z,0
2016-12-15T16:00:41.306Z,0
2016-12-15T16:01:50.144Z,0
2016-12-15T16:02:58.840Z,0
2016-12-15T16:04:08.182Z,0
2016-12-15T16:05:17.478Z,0
2016-12-15T16:06:26.470Z,0
2016-12-15T16:07:35.650Z,0
2016-12-15T16:08:44.955Z,0
2016-12-15T16:09:54.277Z,0
2016-12-15T16:11:03.278Z,0
2016-12-15T16:12:12.314Z,0
2016-12-15T16:13:21.024Z,0
2016-12-15T16:14:30.024Z,0
2016-12-15T16:15:39.092Z,0
2016-12-15T16:16:48.715Z,0
2016-12-15T16:17:58.011Z,0
2016-12-15T16:19:07.382Z,0
2016-12-15T16:20:16.392Z,0
2016-12-15T16:21:25.085Z,0
2016-12-15T16:22:34.077Z,0
2016-12-15T16:23:43.397Z,0
2016-12-15T16:24:52.245Z,0
2016-12-15T16:26:01.594Z,0
2016-12-15T16:27:10.905Z,0
2016-12-15T16:28:19.912Z,0
2016-12-15T16:29:29.227Z,0
2016-12-15T16:30:38.220Z,0
2016-12-15T16:31:47.229Z,0
2016-12-15T16:32:56.549Z,0
2016-12-15T16:34:06.153Z,0
2016-12-15T16:35:15.458Z,0
2016-12-15T16:36:24.452Z,0
2016-12-15T16:37:33.761Z,0
2016-12-15T16:38:42.759Z,0
2016-12-15T16:39:51.452Z,0
2016-12-15T16:41:01.054Z,0
2016-12-15T16:42:10.052Z,0
2016-12-15T16:43:19.356Z,0
2016-12-15T16:44:28.349Z,0
2016-12-15T16:45:37.665Z,0
2016-12-15T16:46:47.012Z,0
2016-12-15T16:47:56.784Z,0
2016-12-15T16:49:06.400Z,0
2016-12-15T16:50:15.379Z,0
2016-12-15T16:51:24.379Z,0
2016-12-15T16:52:33.370Z,0
2016-12-15T16:53:42.661Z,0
2016-12-15T16:54:51.955Z,0
2016-12-15T16:56:00.665Z,0
2016-12-15T16:57:10.026Z,0
2016-12-15T16:58:18.731Z,0
2016-12-15T16:59:27.416Z,0
2016-12-15T17:00:36.100Z,0
2016-12-15T17:01:45.400Z,0
2016-12-15T17:02:54.400Z,0
2016-12-15T17:04:03.996Z,0